createdAt,value
2023-05-06T00:00:03.365Z,4.27
2023-05-06T00:02:39.282Z,4.60
2023-05-06T00:05:07.965Z,3.92
2023-05-06T00:07:35.686Z,4.55
2023-05-06T00:10:06.500Z,4.88
2023-05-06T00:12:34.088Z,4.30
2023-05-06T00:15:01.729Z,4.43
2023-05-06T00:17:29.346Z,4.30
2023-05-06T00:19:58.539Z,4.18
2023-05-06T00:22:26.219Z,4.57
2023-05-06T00:24:53.800Z,4.53
2023-05-06T00:27:22.678Z,4.40
2023-05-06T00:29:50.636Z,4.38
2023-05-06T00:32:18.170Z,3.72
2023-05-06T00:34:45.914Z,4.63
2023-05-06T00:37:13.480Z,4.20
2023-05-06T00:39:41.000Z,4.32
2023-05-06T00:42:08.578Z,4.43
2023-05-06T00:44:38.302Z,4.40
2023-05-06T00:47:06.289Z,4.03
2023-05-06T00:49:34.553Z,4.17
2023-05-06T00:52:02.254Z,4.32
2023-05-06T00:54:30.718Z,4.20
2023-05-06T00:56:58.355Z,4.30
2023-05-06T00:59:25.911Z,4.45
2023-05-06T01:01:54.911Z,4.37
2023-05-06T01:04:23.869Z,4.07
2023-05-06T01:07:02.363Z,4.72
2023-05-06T01:09:37.763Z,4.53
2023-05-06T01:12:10.962Z,4.47
2023-05-06T01:14:44.481Z,4.20
2023-05-06T01:17:14.025Z,4.50
2023-05-06T01:19:46.606Z,4.28
2023-05-06T01:22:16.013Z,4.25
2023-05-06T01:24:46.563Z,4.28
2023-05-06T01:27:16.663Z,4.07
2023-05-06T01:29:46.310Z,4.35
2023-05-06T01:32:34.711Z,4.65
2023-05-06T01:35:11.584Z,4.55
2023-05-06T01:37:46.409Z,4.53
2023-05-06T01:40:17.184Z,4.70
2023-05-06T01:42:48.172Z,4.47
2023-05-06T01:45:17.164Z,4.57
2023-05-06T01:47:46.780Z,4.95
2023-05-06T01:50:14.874Z,4.70
2023-05-06T01:52:42.441Z,5.17
2023-05-06T01:55:10.387Z,4.72
2023-05-06T01:57:39.435Z,5.18
2023-05-06T02:00:09.707Z,5.18
2023-05-06T02:02:39.871Z,5.18
2023-05-06T02:05:09.126Z,5.20
2023-05-06T02:07:42.275Z,4.93
2023-05-06T02:10:10.257Z,5.20
2023-05-06T02:12:42.346Z,5.45
2023-05-06T02:15:10.986Z,4.90
2023-05-06T02:17:39.594Z,5.00
2023-05-06T02:20:09.675Z,5.05
2023-05-06T02:22:37.349Z,5.50
2023-05-06T02:25:05.820Z,5.43
2023-05-06T02:27:33.675Z,5.30
2023-05-06T02:30:02.607Z,5.50
2023-05-06T02:32:30.667Z,5.38
2023-05-06T02:34:58.263Z,5.65
2023-05-06T02:37:25.839Z,5.50
2023-05-06T02:39:54.542Z,5.80
2023-05-06T02:42:22.198Z,5.60
2023-05-06T02:44:49.747Z,5.57
2023-05-06T02:47:18.803Z,5.53
2023-05-06T02:49:46.429Z,5.35
2023-05-06T02:52:13.959Z,5.75
2023-05-06T02:54:41.714Z,5.37
2023-05-06T02:57:09.346Z,6.10
2023-05-06T02:59:36.947Z,5.68
2023-05-06T03:02:04.648Z,5.50
2023-05-06T03:04:33.640Z,5.80
2023-05-06T03:07:01.252Z,5.50
2023-05-06T03:09:29.100Z,5.28
2023-05-06T03:11:57.678Z,5.72
2023-05-06T03:14:25.991Z,5.40
2023-05-06T03:16:53.953Z,5.45
2023-05-06T03:19:22.432Z,5.50
2023-05-06T03:21:51.489Z,5.30
2023-05-06T03:24:21.162Z,5.32
2023-05-06T03:26:49.681Z,5.20
2023-05-06T03:29:17.259Z,5.03
2023-05-06T03:31:50.465Z,5.07
2023-05-06T03:34:19.266Z,5.25
2023-05-06T03:36:46.967Z,5.40
2023-05-06T03:39:16.545Z,5.65
2023-05-06T03:41:45.752Z,5.75
2023-05-06T03:44:13.628Z,5.40
2023-05-06T03:46:42.341Z,5.40
2023-05-06T03:49:11.120Z,5.40
2023-05-06T03:51:39.503Z,5.88
2023-05-06T03:54:07.363Z,6.15
2023-05-06T03:56:37.762Z,5.50
2023-05-06T03:59:05.783Z,5.32
2023-05-06T04:01:33.478Z,5.47
2023-05-06T04:04:01.225Z,5.65
2023-05-06T04:06:29.431Z,5.72
2023-05-06T04:08:57.077Z,5.83
2023-05-06T04:11:25.068Z,5.30
2023-05-06T04:13:54.281Z,5.55
2023-05-06T04:16:24.231Z,5.80
2023-05-06T04:18:52.775Z,6.05
2023-05-06T04:21:20.848Z,6.13
2023-05-06T04:23:55.166Z,5.80
2023-05-06T04:26:31.352Z,5.68
2023-05-06T04:29:00.895Z,5.68
2023-05-06T04:31:33.250Z,6.00
2023-05-06T04:34:04.974Z,6.00
2023-05-06T04:36:33.629Z,5.28
2023-05-06T04:39:27.375Z,6.63
2023-05-06T04:41:55.233Z,5.65
2023-05-06T04:44:33.835Z,5.82
2023-05-06T04:47:02.642Z,5.87
2023-05-06T04:49:30.687Z,6.03
2023-05-06T04:51:58.522Z,6.07
2023-05-06T04:54:26.837Z,6.10
2023-05-06T04:56:54.746Z,6.40
2023-05-06T04:59:22.403Z,6.43
2023-05-06T05:01:51.749Z,5.82
2023-05-06T05:04:19.328Z,6.03
2023-05-06T05:06:48.387Z,5.45
2023-05-06T05:09:16.791Z,6.68
2023-05-06T05:11:46.171Z,5.87
2023-05-06T05:14:14.448Z,6.00
2023-05-06T05:16:42.525Z,5.95
2023-05-06T05:19:12.377Z,5.80
2023-05-06T05:21:40.630Z,6.45
2023-05-06T05:24:10.490Z,6.00
2023-05-06T05:26:38.043Z,5.85
2023-05-06T05:29:06.445Z,5.95
2023-05-06T05:31:34.028Z,5.68
2023-05-06T05:34:02.666Z,6.20
2023-05-06T05:36:31.886Z,6.18
2023-05-06T05:39:02.196Z,6.20
2023-05-06T05:41:32.042Z,6.45
2023-05-06T05:43:59.933Z,5.97
2023-05-06T05:46:28.118Z,5.63
2023-05-06T05:48:57.192Z,6.10
2023-05-06T05:51:25.178Z,6.30
2023-05-06T05:53:54.969Z,6.40
2023-05-06T05:56:24.845Z,6.28
2023-05-06T05:58:52.725Z,5.93
2023-05-06T06:01:20.728Z,6.15
2023-05-06T06:03:48.613Z,6.38
2023-05-06T06:06:16.517Z,6.35
2023-05-06T06:08:44.217Z,6.40
2023-05-06T06:11:14.800Z,6.77
2023-05-06T06:13:42.728Z,5.88
2023-05-06T06:16:10.442Z,5.97
2023-05-06T06:18:38.015Z,6.45
2023-05-06T06:21:05.983Z,6.40
2023-05-06T06:23:33.584Z,6.97
2023-05-06T06:26:01.380Z,6.70
2023-05-06T06:28:30.281Z,6.65
2023-05-06T06:30:57.885Z,6.53
2023-05-06T06:33:25.490Z,6.75
2023-05-06T06:35:53.050Z,6.83
2023-05-06T06:38:20.574Z,6.60
2023-05-06T06:40:48.086Z,7.13
2023-05-06T06:43:15.689Z,6.57
2023-05-06T06:45:57.267Z,6.65
2023-05-06T06:48:25.052Z,7.03
2023-05-06T06:50:52.641Z,6.72
2023-05-06T06:53:20.242Z,6.80
2023-05-06T06:55:47.908Z,6.80
2023-05-06T06:58:15.586Z,6.75
2023-05-06T07:00:44.011Z,6.03
2023-05-06T07:03:15.487Z,6.28
2023-05-06T07:05:43.094Z,5.97
2023-05-06T07:08:10.765Z,6.90
2023-05-06T07:10:38.749Z,6.93
2023-05-06T07:13:06.383Z,6.03
2023-05-06T07:15:34.010Z,6.22
2023-05-06T07:18:01.642Z,6.25
2023-05-06T07:20:30.656Z,6.53
2023-05-06T07:22:58.193Z,6.70
2023-05-06T07:25:27.328Z,6.20
2023-05-06T07:27:54.933Z,5.97
2023-05-06T07:30:23.517Z,7.18
2023-05-06T07:32:51.408Z,6.20
2023-05-06T07:35:19.254Z,6.45
2023-05-06T07:37:48.323Z,6.33
2023-05-06T07:40:16.089Z,6.50
2023-05-06T07:42:43.647Z,6.20
2023-05-06T07:45:12.231Z,6.75
2023-05-06T07:47:40.105Z,6.95
2023-05-06T07:50:08.720Z,7.00
2023-05-06T07:52:36.460Z,6.93
2023-05-06T07:55:06.221Z,6.68
2023-05-06T07:57:33.813Z,6.38
2023-05-06T08:00:01.378Z,6.40
2023-05-06T08:02:30.120Z,6.40
2023-05-06T08:04:57.798Z,6.65
2023-05-06T08:07:25.409Z,6.65
2023-05-06T08:09:52.961Z,5.88
2023-05-06T08:12:21.976Z,6.55
2023-05-06T08:14:49.532Z,6.47
2023-05-06T08:17:17.337Z,6.57
2023-05-06T08:19:44.880Z,6.68
2023-05-06T08:22:12.655Z,6.38
2023-05-06T08:24:40.266Z,6.47
2023-05-06T08:27:07.825Z,6.43
2023-05-06T08:29:36.761Z,5.82
2023-05-06T08:32:04.485Z,6.60
2023-05-06T08:34:32.124Z,6.50
2023-05-06T08:37:00.196Z,6.65
2023-05-06T08:39:27.925Z,6.03
2023-05-06T08:41:57.062Z,5.60
2023-05-06T08:44:26.031Z,6.53
2023-05-06T08:46:55.533Z,6.55
2023-05-06T08:49:23.106Z,6.13
2023-05-06T08:51:52.434Z,6.07
2023-05-06T08:54:20.064Z,6.72
2023-05-06T08:56:53.075Z,6.85
2023-05-06T08:59:24.583Z,6.80
2023-05-06T09:01:52.499Z,6.90
2023-05-06T09:04:21.953Z,6.90
2023-05-06T09:06:49.554Z,7.10
2023-05-06T09:09:17.188Z,7.15
2023-05-06T09:11:44.939Z,6.72
2023-05-06T09:14:13.823Z,6.55
2023-05-06T09:16:43.840Z,6.77
2023-05-06T09:19:11.995Z,6.78
2023-05-06T09:21:43.561Z,6.32
2023-05-06T09:24:12.283Z,6.10
2023-05-06T09:26:41.831Z,5.22
2023-05-06T09:29:09.868Z,6.10
2023-05-06T09:31:42.173Z,5.78
2023-05-06T09:34:09.834Z,4.95
2023-05-06T09:36:37.760Z,5.40
2023-05-06T09:39:06.685Z,5.00
2023-05-06T09:41:34.452Z,5.20
2023-05-06T09:44:02.279Z,5.57
2023-05-06T09:46:30.291Z,5.93
2023-05-06T09:48:58.659Z,5.70
2023-05-06T09:51:27.614Z,5.38
2023-05-06T09:53:56.739Z,5.20
2023-05-06T09:56:26.243Z,5.88
2023-05-06T09:58:55.629Z,6.35
2023-05-06T10:01:35.173Z,5.65
2023-05-06T10:04:06.897Z,6.00
2023-05-06T10:06:39.317Z,6.50
2023-05-06T10:09:09.064Z,6.18
2023-05-06T10:11:38.099Z,6.50
2023-05-06T10:14:06.516Z,6.38
2023-05-06T10:16:35.758Z,5.90
2023-05-06T10:19:05.857Z,6.20
2023-05-06T10:21:36.950Z,6.50
2023-05-06T10:24:08.941Z,6.22
2023-05-06T10:26:39.354Z,6.50
2023-05-06T10:29:10.401Z,6.18
2023-05-06T10:31:45.259Z,5.87
2023-05-06T10:34:13.575Z,6.22
2023-05-06T10:36:43.994Z,6.55
2023-05-06T10:39:14.016Z,5.75
2023-05-06T10:41:42.965Z,5.68
2023-05-06T10:44:10.553Z,6.00
2023-05-06T10:47:00.559Z,6.10
2023-05-06T10:49:29.058Z,6.13
2023-05-06T10:52:15.136Z,5.85
2023-05-06T10:54:50.297Z,6.05
2023-05-06T10:57:20.808Z,6.30
2023-05-06T10:59:48.609Z,6.20
2023-05-06T11:02:19.872Z,6.63
2023-05-06T11:04:51.491Z,6.45
2023-05-06T11:07:24.783Z,6.55
2023-05-06T11:09:56.608Z,6.47
2023-05-06T11:12:48.928Z,7.10
2023-05-06T11:15:26.987Z,7.20
2023-05-06T11:17:56.259Z,7.10
2023-05-06T11:20:25.246Z,6.57
2023-05-06T11:22:55.180Z,7.57
2023-05-06T11:25:42.400Z,7.32
2023-05-06T11:28:12.722Z,7.15
2023-05-06T11:30:42.576Z,6.95
2023-05-06T11:33:18.384Z,6.90
2023-05-06T11:35:46.501Z,7.10
2023-05-06T11:38:14.024Z,7.25
2023-05-06T11:40:42.406Z,7.78
2023-05-06T11:43:15.322Z,7.40
2023-05-06T11:45:45.279Z,7.00
2023-05-06T11:48:13.581Z,8.00
2023-05-06T11:50:45.252Z,8.13
2023-05-06T11:53:13.026Z,7.97
2023-05-06T11:55:41.019Z,7.13
2023-05-06T11:58:16.329Z,7.68
2023-05-06T12:00:51.495Z,7.10
2023-05-06T12:03:20.103Z,8.18
2023-05-06T12:05:48.776Z,7.75
2023-05-06T12:08:26.815Z,7.68
2023-05-06T12:10:57.251Z,7.18
2023-05-06T12:13:27.272Z,9.50
2023-05-06T12:15:55.570Z,7.90
2023-05-06T12:18:24.642Z,7.97
2023-05-06T12:20:54.627Z,8.13
2023-05-06T12:23:22.669Z,8.38
2023-05-06T12:26:01.434Z,7.67
2023-05-06T12:28:31.853Z,8.27
2023-05-06T12:30:59.421Z,8.45
2023-05-06T12:33:26.938Z,9.15
2023-05-06T12:35:56.947Z,8.57
2023-05-06T12:38:24.543Z,8.40
2023-05-06T12:40:55.216Z,8.20
2023-05-06T12:43:31.323Z,8.25
2023-05-06T12:46:06.372Z,8.43
2023-05-06T12:48:34.350Z,7.43
2023-05-06T12:51:02.226Z,7.67
2023-05-06T12:53:34.421Z,8.07
2023-05-06T12:56:03.102Z,8.43
2023-05-06T12:58:37.296Z,7.38
2023-05-06T13:01:05.111Z,7.15
2023-05-06T13:03:33.107Z,7.30
2023-05-06T13:06:00.755Z,6.97
2023-05-06T13:08:29.301Z,7.80
2023-05-06T13:10:56.853Z,7.55
2023-05-06T13:13:24.440Z,6.95
2023-05-06T13:15:54.667Z,7.60
2023-05-06T13:18:22.216Z,7.38
2023-05-06T13:20:49.807Z,7.80
2023-05-06T13:23:17.790Z,7.82
2023-05-06T13:26:00.267Z,8.07
2023-05-06T13:28:31.989Z,8.57
2023-05-06T13:31:00.914Z,8.68
2023-05-06T13:33:28.496Z,8.40
2023-05-06T13:35:56.017Z,9.45
2023-05-06T13:38:23.913Z,9.25
2023-05-06T13:40:52.659Z,9.13
2023-05-06T13:43:20.216Z,9.07
2023-05-06T13:45:47.830Z,9.13
2023-05-06T13:48:17.249Z,9.40
2023-05-06T13:50:46.057Z,9.27
2023-05-06T13:53:13.775Z,8.93
2023-05-06T13:55:41.892Z,8.50
2023-05-06T13:58:09.660Z,9.98
2023-05-06T14:00:37.243Z,8.40
2023-05-06T14:03:05.341Z,8.60
2023-05-06T14:05:34.546Z,8.83
2023-05-06T14:08:02.157Z,8.60
2023-05-06T14:10:29.785Z,8.70
2023-05-06T14:12:57.484Z,8.60
2023-05-06T14:15:25.078Z,8.55
2023-05-06T14:17:52.630Z,7.80
2023-05-06T14:20:20.565Z,8.30
2023-05-06T14:22:49.456Z,8.55
2023-05-06T14:25:17.383Z,8.18
2023-05-06T14:27:45.411Z,8.25
2023-05-06T14:30:13.989Z,7.87
2023-05-06T14:32:41.576Z,7.72
2023-05-06T14:35:10.578Z,8.50
2023-05-06T14:37:38.655Z,8.13
2023-05-06T14:40:09.921Z,8.10
2023-05-06T14:42:37.877Z,8.10
2023-05-06T14:45:06.813Z,8.23
2023-05-06T14:47:34.381Z,7.85
2023-05-06T14:50:02.027Z,7.30
2023-05-06T14:52:29.797Z,8.32
2023-05-06T14:54:57.386Z,7.67
2023-05-06T14:57:26.334Z,9.50
2023-05-06T14:59:53.878Z,8.60
2023-05-06T15:02:21.522Z,8.88
2023-05-06T15:04:49.132Z,8.82
2023-05-06T15:07:16.750Z,8.40
2023-05-06T15:09:44.714Z,9.55
2023-05-06T15:12:12.289Z,9.63
2023-05-06T15:14:41.323Z,9.23
2023-05-06T15:17:08.877Z,9.70
2023-05-06T15:19:37.660Z,9.57
2023-05-06T15:22:05.283Z,10.05
2023-05-06T15:24:33.167Z,11.00
2023-05-06T15:27:00.708Z,10.15
2023-05-06T15:29:28.238Z,10.48
2023-05-06T15:31:57.169Z,9.70
2023-05-06T15:34:24.881Z,10.10
2023-05-06T15:36:53.927Z,9.68
2023-05-06T15:39:21.795Z,10.50
2023-05-06T15:41:49.450Z,10.18
2023-05-06T15:44:17.242Z,10.90
2023-05-06T15:46:47.828Z,10.52
2023-05-06T15:51:47.212Z,11.40
2023-05-06T15:54:18.122Z,11.38
2023-05-06T15:56:45.892Z,11.53
2023-05-06T15:59:13.614Z,10.82
2023-05-06T16:02:24.658Z,12.20
2023-05-06T16:04:31.104Z,11.68
2023-05-06T16:06:58.979Z,11.98
2023-05-06T16:09:26.717Z,11.50
2023-05-06T16:11:54.725Z,11.60
2023-05-06T16:14:22.543Z,11.43
2023-05-06T16:16:50.088Z,11.60
2023-05-06T16:19:17.621Z,13.00
2023-05-06T16:21:46.501Z,12.57
2023-05-06T16:24:13.998Z,12.55
2023-05-06T16:26:42.026Z,13.20
2023-05-06T16:29:10.065Z,12.27
2023-05-06T16:31:38.473Z,12.57
2023-05-06T16:34:06.340Z,12.37
2023-05-06T16:36:33.938Z,11.65
2023-05-06T16:39:02.774Z,11.93
2023-05-06T16:41:30.355Z,12.40
2023-05-06T16:43:58.424Z,12.15
2023-05-06T16:46:26.322Z,11.97
2023-05-06T16:48:54.339Z,12.82
2023-05-06T16:51:21.948Z,14.23
2023-05-06T16:53:49.516Z,11.82
2023-05-06T16:56:18.379Z,12.20
2023-05-06T16:58:45.861Z,11.93
2023-05-06T17:01:13.480Z,11.52
2023-05-06T17:03:41.146Z,12.90
2023-05-06T17:06:08.754Z,12.10
2023-05-06T17:08:37.207Z,12.27
2023-05-06T17:11:07.162Z,12.10
2023-05-06T17:13:36.006Z,11.80
2023-05-06T17:16:03.511Z,12.25
2023-05-06T17:18:31.304Z,11.65
2023-05-06T17:20:58.852Z,12.57
2023-05-06T17:23:26.999Z,12.73
2023-05-06T17:25:57.062Z,12.60
2023-05-06T17:28:24.789Z,12.35
2023-05-06T17:30:53.764Z,12.13
2023-05-06T17:33:21.857Z,12.43
2023-05-06T17:35:49.356Z,12.03
2023-05-06T17:38:17.598Z,12.43
2023-05-06T17:40:45.132Z,11.52
2023-05-06T17:43:12.634Z,13.02
2023-05-06T17:45:41.229Z,12.65
2023-05-06T17:48:10.319Z,13.40
2023-05-06T17:50:37.903Z,13.57
2023-05-06T17:53:05.467Z,13.00
2023-05-06T17:55:33.009Z,13.27
2023-05-06T17:58:00.550Z,13.65
2023-05-06T18:00:28.103Z,13.37
2023-05-06T18:02:55.921Z,12.98
2023-05-06T18:05:26.174Z,13.27
2023-05-06T18:07:53.731Z,12.60
2023-05-06T18:10:21.418Z,12.15
2023-05-06T18:12:49.004Z,11.87
2023-05-06T18:15:16.594Z,11.93
2023-05-06T18:17:44.188Z,12.07
2023-05-06T18:20:12.979Z,12.40
2023-05-06T18:22:42.754Z,12.23
2023-05-06T18:25:11.083Z,12.33
2023-05-06T18:27:38.916Z,11.80
2023-05-06T18:30:07.685Z,12.07
2023-05-06T18:32:35.646Z,11.73
2023-05-06T18:35:03.333Z,12.43
2023-05-06T18:37:30.891Z,11.70
2023-05-06T18:39:59.818Z,11.25
2023-05-06T18:42:28.006Z,10.75
2023-05-06T18:44:56.357Z,10.90
2023-05-06T18:47:25.625Z,10.40
2023-05-06T18:49:53.506Z,10.77
2023-05-06T18:52:21.314Z,10.80
2023-05-06T18:54:48.861Z,10.10
2023-05-06T18:57:19.416Z,10.40
2023-05-06T18:59:47.088Z,11.10
2023-05-06T19:02:14.716Z,11.10
2023-05-06T19:04:42.422Z,11.68
2023-05-06T19:07:10.061Z,11.30
2023-05-06T19:09:38.059Z,11.60
2023-05-06T19:12:05.646Z,11.85
2023-05-06T19:14:35.515Z,11.20
2023-05-06T19:17:04.564Z,11.25
2023-05-06T19:19:32.260Z,11.23
2023-05-06T19:22:01.701Z,11.35
2023-05-06T19:24:30.810Z,10.88
2023-05-06T19:26:58.314Z,11.70
2023-05-06T19:29:25.919Z,11.73
2023-05-06T19:31:54.882Z,11.80
2023-05-06T19:34:22.443Z,11.85
2023-05-06T19:36:49.991Z,12.30
2023-05-06T19:39:17.619Z,11.40
2023-05-06T19:41:45.237Z,10.93
2023-05-06T19:44:12.835Z,11.88
2023-05-06T19:46:40.768Z,11.43
2023-05-06T19:49:09.796Z,11.30
2023-05-06T19:51:37.444Z,11.17
2023-05-06T19:54:05.511Z,11.18
2023-05-06T19:56:33.161Z,11.65
2023-05-06T19:59:00.727Z,11.30
2023-05-06T20:01:28.509Z,11.50
2023-05-06T20:03:56.213Z,11.40
2023-05-06T20:06:25.125Z,11.75
2023-05-06T20:08:52.753Z,12.05
2023-05-06T20:11:20.312Z,12.02
2023-05-06T20:13:47.872Z,11.77
2023-05-06T20:16:15.928Z,11.53
2023-05-06T20:18:43.704Z,11.88
2023-05-06T20:21:11.403Z,13.50
2023-05-06T20:23:40.422Z,13.70
2023-05-06T20:26:07.980Z,12.63
2023-05-06T20:28:38.979Z,12.70
2023-05-06T20:31:06.869Z,12.48
2023-05-06T20:33:34.445Z,12.23
2023-05-06T20:36:02.022Z,12.20
2023-05-06T20:38:29.998Z,12.48
2023-05-06T20:40:59.224Z,11.67
2023-05-06T20:43:26.782Z,12.45
2023-05-06T20:45:54.393Z,12.38
2023-05-06T20:48:22.128Z,13.00
2023-05-06T20:50:50.099Z,11.88
2023-05-06T20:53:17.938Z,12.70
2023-05-06T20:55:45.696Z,11.30
2023-05-06T20:58:14.713Z,12.35
2023-05-06T21:00:42.281Z,12.43
2023-05-06T21:03:09.893Z,12.27
2023-05-06T21:05:37.602Z,12.33
2023-05-06T21:08:05.472Z,12.32
2023-05-06T21:10:33.039Z,12.73
2023-05-06T21:13:01.241Z,11.77
2023-05-06T21:15:30.318Z,12.38
2023-05-06T21:17:57.947Z,11.83
2023-05-06T21:20:25.738Z,11.15
2023-05-06T21:22:53.403Z,11.60
2023-05-06T21:25:21.273Z,11.52
2023-05-06T21:27:48.797Z,12.88
2023-05-06T21:30:16.388Z,12.00
2023-05-06T21:32:45.318Z,12.90
2023-05-06T21:35:13.112Z,12.80
2023-05-06T21:37:40.704Z,11.55
2023-05-06T21:40:09.745Z,12.68
2023-05-06T21:42:37.309Z,12.83
2023-05-06T21:45:05.621Z,12.98
2023-05-06T21:47:33.213Z,12.75
2023-05-06T21:50:02.162Z,12.75
2023-05-06T21:52:29.924Z,12.27
2023-05-06T21:54:57.514Z,12.83
2023-05-06T21:57:25.256Z,12.60
2023-05-06T21:59:52.973Z,13.20
2023-05-06T22:02:20.608Z,13.10
2023-05-06T22:04:48.232Z,12.77
2023-05-06T22:07:17.286Z,13.87
2023-05-06T22:09:44.826Z,12.45
2023-05-06T22:12:12.819Z,12.85
2023-05-06T22:14:41.782Z,12.45
2023-05-06T22:17:10.375Z,12.82
2023-05-06T22:19:38.320Z,11.90
2023-05-06T22:22:06.378Z,11.68
2023-05-06T22:24:35.359Z,11.85
2023-05-06T22:27:03.030Z,11.43
2023-05-06T22:29:30.599Z,11.55
2023-05-06T22:31:58.308Z,11.87
2023-05-06T22:34:26.054Z,11.13
2023-05-06T22:36:53.633Z,11.23
2023-05-06T22:39:21.404Z,10.35
2023-05-06T22:41:50.882Z,11.07
2023-05-06T22:44:18.488Z,10.60
2023-05-06T22:46:46.354Z,10.07
2023-05-06T22:49:14.357Z,10.50
2023-05-06T22:51:42.441Z,10.57
2023-05-06T22:54:10.013Z,10.38
2023-05-06T22:56:37.683Z,10.00
2023-05-06T22:59:07.081Z,10.85
2023-05-06T23:01:34.685Z,11.23
2023-05-06T23:04:02.417Z,10.05
2023-05-06T23:06:30.771Z,9.98
2023-05-06T23:08:58.382Z,9.67
2023-05-06T23:11:26.332Z,9.38
2023-05-06T23:13:53.924Z,9.43
2023-05-06T23:16:23.501Z,9.82
2023-05-06T23:18:51.069Z,10.05
2023-05-06T23:21:18.624Z,9.27
2023-05-06T23:23:46.192Z,8.88
2023-05-06T23:26:13.898Z,9.25
2023-05-06T23:28:41.479Z,8.82
2023-05-06T23:31:09.099Z,8.95
2023-05-06T23:33:38.092Z,8.30
2023-05-06T23:36:05.887Z,8.95
2023-05-06T23:38:33.649Z,9.15
2023-05-06T23:41:01.265Z,9.00
2023-05-06T23:43:28.979Z,8.07
2023-05-06T23:45:56.578Z,8.63
2023-05-06T23:48:24.124Z,9.15
2023-05-06T23:50:54.352Z,9.18
2023-05-06T23:53:21.959Z,8.63
2023-05-06T23:55:49.697Z,8.50
2023-05-06T23:58:17.363Z,9.00
